createdAt,value
2016-11-24T00:00:13.857Z,1013.1
2016-11-24T00:01:30.809Z,1013.09
2016-11-24T00:02:47.205Z,1013.1
2016-11-24T00:04:01.824Z,1013.12
2016-11-24T00:05:18.543Z,1013.11
2016-11-24T00:06:33.716Z,1013.1
2016-11-24T00:07:47.230Z,1013.05
2016-11-24T00:09:02.493Z,1013.08
2016-11-24T00:10:17.038Z,1013.06
2016-11-24T00:11:32.801Z,1013.1
2016-11-24T00:12:45.956Z,1013.11
2016-11-24T00:14:00.704Z,1013.16
2016-11-24T00:15:14.483Z,1013.18
2016-11-24T00:16:29.570Z,1013.16
2016-11-24T00:17:43.359Z,1013.2
2016-11-24T00:18:59.209Z,1013.13
2016-11-24T00:20:15.496Z,1013.1
2016-11-24T00:21:32.023Z,1013.11
2016-11-24T00:22:47.103Z,1013.11
2016-11-24T00:24:01.921Z,1013.08
2016-11-24T00:25:16.571Z,1013.15
2016-11-24T00:26:30.484Z,1013.11
2016-11-24T00:27:47.008Z,1013.12
2016-11-24T00:28:59.437Z,1013.08
2016-11-24T00:30:13.291Z,1013.07
2016-11-24T00:31:28.082Z,1013.08
2016-11-24T00:32:43.267Z,1013.06
2016-11-24T00:33:59.826Z,1013.07
2016-11-24T00:35:14.827Z,1013.03
2016-11-24T00:36:30.005Z,1013.03
2016-11-24T00:37:42.175Z,1013.06
2016-11-24T00:38:57.263Z,1013.06
2016-11-24T00:40:12.506Z,1013.06
2016-11-24T00:41:27.589Z,1013.12
2016-11-24T00:42:42.028Z,1013.16
2016-11-24T00:43:58.088Z,1013.13
2016-11-24T00:45:13.953Z,1013.13
2016-11-24T00:46:31.042Z,1013.14
2016-11-24T00:47:47.577Z,1013.14
2016-11-24T00:49:01.517Z,1013.17
2016-11-24T00:50:15.936Z,1013.17
2016-11-24T00:51:31.800Z,1013.17
2016-11-24T00:52:46.919Z,1013.21
2016-11-24T00:54:02.549Z,1013.22
2016-11-24T00:55:17.799Z,1013.2
2016-11-24T00:56:32.229Z,1013.26
2016-11-24T00:57:48.100Z,1013.24
2016-11-24T00:59:02.832Z,1013.23
2016-11-24T01:00:18.461Z,1013.22
2016-11-24T01:01:35.300Z,1013.19
2016-11-24T01:02:51.560Z,1013.22
2016-11-24T01:04:05.352Z,1013.19
2016-11-24T01:05:20.410Z,1013.2
2016-11-24T01:06:36.698Z,1013.19
2016-11-24T01:07:52.404Z,1013.2
2016-11-24T01:09:04.408Z,1013.2
2016-11-24T01:10:19.837Z,1013.2
2016-11-24T01:11:34.426Z,1013.22
2016-11-24T01:12:47.342Z,1013.21
2016-11-24T01:14:01.594Z,1013.19
2016-11-24T01:15:13.553Z,1013.19
2016-11-24T01:16:28.825Z,1013.19
2016-11-24T01:17:43.787Z,1013.2
2016-11-24T01:18:59.545Z,1013.2
2016-11-24T01:20:11.234Z,1013.23
2016-11-24T01:21:27.210Z,1013.27
2016-11-24T01:22:41.572Z,1013.27
2016-11-24T01:23:54.724Z,1013.27
2016-11-24T01:25:10.770Z,1013.29
2016-11-24T01:26:27.473Z,1013.27
2016-11-24T01:27:44.141Z,1013.29
2016-11-24T01:28:59.056Z,1013.24
2016-11-24T01:30:14.929Z,1013.27
2016-11-24T01:31:30.170Z,1013.23
2016-11-24T01:32:46.649Z,1013.28
2016-11-24T01:34:00.306Z,1013.29
2016-11-24T01:35:13.055Z,1013.25
2016-11-24T01:36:27.714Z,1013.25
2016-11-24T01:37:40.951Z,1013.23
2016-11-24T01:38:55.202Z,1013.22
2016-11-24T01:40:08.574Z,1013.24
2016-11-24T01:41:23.686Z,1013.2
2016-11-24T01:42:36.769Z,1013.26
2016-11-24T01:43:52.743Z,1013.24
2016-11-24T01:45:06.491Z,1013.29
2016-11-24T01:46:22.977Z,1013.28
2016-11-24T01:47:39.227Z,1013.34
2016-11-24T01:48:55.113Z,1013.31
2016-11-24T01:50:10.083Z,1013.33
2016-11-24T01:51:25.811Z,1013.36
2016-11-24T01:52:41.058Z,1013.35
2016-11-24T01:53:55.064Z,1013.41
2016-11-24T01:55:10.548Z,1013.41
2016-11-24T01:56:24.247Z,1013.43
2016-11-24T01:57:40.174Z,1013.41
2016-11-24T01:58:55.883Z,1013.4
2016-11-24T02:00:12.434Z,1013.37
2016-11-24T02:01:25.899Z,1013.38
2016-11-24T02:02:40.552Z,1013.38
2016-11-24T02:03:56.589Z,1013.36
2016-11-24T02:05:10.538Z,1013.35
2016-11-24T02:06:26.601Z,1013.36
2016-11-24T02:07:41.787Z,1013.4
2016-11-24T02:08:56.065Z,1013.35
2016-11-24T02:10:11.538Z,1013.33
2016-11-24T02:11:25.957Z,1013.33
2016-11-24T02:12:41.113Z,1013.31
2016-11-24T02:13:57.435Z,1013.32
2016-11-24T02:15:10.162Z,1013.28
2016-11-24T02:16:26.483Z,1013.34
2016-11-24T02:17:42.783Z,1013.29
2016-11-24T02:18:59.228Z,1013.29
2016-11-24T02:20:15.768Z,1013.33
2016-11-24T02:21:31.029Z,1013.32
2016-11-24T02:22:44.756Z,1013.28
2016-11-24T02:23:56.975Z,1013.3
2016-11-24T02:25:11.404Z,1013.34
2016-11-24T02:26:24.135Z,1013.28
2016-11-24T02:27:37.632Z,1013.3
2016-11-24T02:28:51.906Z,1013.25
2016-11-24T02:30:06.660Z,1013.24
2016-11-24T02:31:18.416Z,1013.24
2016-11-24T02:32:33.245Z,1013.24
2016-11-24T02:33:49.152Z,1013.27
2016-11-24T02:35:05.513Z,1013.29
2016-11-24T02:36:18.728Z,1013.28
2016-11-24T02:37:32.505Z,1013.32
2016-11-24T02:38:48.146Z,1013.33
2016-11-24T02:40:04.713Z,1013.35
2016-11-24T02:41:20.891Z,1013.36
2016-11-24T02:42:36.832Z,1013.37
2016-11-24T02:43:51.399Z,1013.39
2016-11-24T02:45:06.102Z,1013.42
2016-11-24T02:46:16.790Z,1013.42
2016-11-24T02:47:28.698Z,1013.44
2016-11-24T02:48:43.941Z,1013.41
2016-11-24T02:49:58.134Z,1013.44
2016-11-24T02:51:14.174Z,1013.45
2016-11-24T02:52:25.946Z,1013.49
2016-11-24T02:53:39.223Z,1013.47
2016-11-24T02:54:52.597Z,1013.55
2016-11-24T02:56:07.890Z,1013.54
2016-11-24T02:57:24.617Z,1013.55
2016-11-24T02:58:39.709Z,1013.58
2016-11-24T02:59:52.934Z,1013.59
2016-11-24T03:01:06.503Z,1013.59
2016-11-24T03:02:20.983Z,1013.6
2016-11-24T03:03:35.530Z,1013.62
2016-11-24T03:04:47.579Z,1013.62
2016-11-24T03:06:02.254Z,1013.64
2016-11-24T03:07:15.574Z,1013.71
2016-11-24T03:08:31.889Z,1013.69
2016-11-24T03:09:46.731Z,1013.72
2016-11-24T03:11:01.868Z,1013.74
2016-11-24T03:12:15.877Z,1013.75
2016-11-24T03:13:31.185Z,1013.72
2016-11-24T03:14:44.208Z,1013.75
2016-11-24T03:16:00.127Z,1013.71
2016-11-24T03:17:16.395Z,1013.76
2016-11-24T03:18:31.487Z,1013.75
2016-11-24T03:19:46.582Z,1013.75
2016-11-24T03:21:00.531Z,1013.75
2016-11-24T03:22:15.358Z,1013.75
2016-11-24T03:23:29.613Z,1013.79
2016-11-24T03:24:41.607Z,1013.77
2016-11-24T03:25:56.417Z,1013.77
2016-11-24T03:27:12.953Z,1013.8
2016-11-24T03:28:28.414Z,1013.78
2016-11-24T03:29:44.654Z,1013.76
2016-11-24T03:30:59.537Z,1013.77
2016-11-24T03:32:14.126Z,1013.75
2016-11-24T03:33:26.901Z,1013.77
2016-11-24T03:34:42.790Z,1013.75
2016-11-24T03:35:59.229Z,1013.79
2016-11-24T03:37:13.886Z,1013.77
2016-11-24T03:38:28.329Z,1013.83
2016-11-24T03:39:44.400Z,1013.81
2016-11-24T03:41:00.683Z,1013.82
2016-11-24T03:42:15.926Z,1013.83
2016-11-24T03:43:31.992Z,1013.84
2016-11-24T03:44:46.439Z,1013.88
2016-11-24T03:45:59.901Z,1013.88
2016-11-24T03:47:16.056Z,1013.92
2016-11-24T03:48:31.117Z,1013.92
2016-11-24T03:49:45.874Z,1013.93
2016-11-24T03:50:58.875Z,1013.92
2016-11-24T03:52:14.830Z,1013.91
2016-11-24T03:53:29.263Z,1013.92
2016-11-24T03:54:41.980Z,1013.95
2016-11-24T03:55:55.186Z,1013.93
2016-11-24T03:57:11.545Z,1013.99
2016-11-24T03:58:26.388Z,1013.94
2016-11-24T03:59:39.529Z,1013.95
2016-11-24T04:00:53.145Z,1013.93
2016-11-24T04:02:09.045Z,1013.98
2016-11-24T04:03:23.446Z,1014.01
2016-11-24T04:04:35.294Z,1013.99
2016-11-24T04:05:50.933Z,1014.01
2016-11-24T04:07:06.803Z,1014.03
2016-11-24T04:08:20.370Z,1014.07
2016-11-24T04:09:35.161Z,1014.12
2016-11-24T04:10:51.760Z,1014.12
2016-11-24T04:12:07.639Z,1014.15
2016-11-24T04:13:24.692Z,1014.17
2016-11-24T04:14:36.185Z,1014.21
2016-11-24T04:15:48.851Z,1014.17
2016-11-24T04:17:02.222Z,1014.25
2016-11-24T04:18:17.052Z,1014.19
2016-11-24T04:19:31.700Z,1014.19
2016-11-24T04:20:47.989Z,1014.14
2016-11-24T04:22:02.728Z,1014.14
2016-11-24T04:23:19.130Z,1014.16
2016-11-24T04:24:32.691Z,1014.16
2016-11-24T04:25:47.258Z,1014.17
2016-11-24T04:27:01.674Z,1014.17
2016-11-24T04:28:17.785Z,1014.12
2016-11-24T04:29:31.626Z,1014.19
2016-11-24T04:30:47.528Z,1014.16
2016-11-24T04:32:04.248Z,1014.21
2016-11-24T04:33:16.529Z,1014.19
2016-11-24T04:34:32.509Z,1014.25
2016-11-24T04:35:46.787Z,1014.24
2016-11-24T04:36:59.000Z,1014.28
2016-11-24T04:38:10.917Z,1014.21
2016-11-24T04:39:27.404Z,1014.22
2016-11-24T04:40:40.797Z,1014.31
2016-11-24T04:41:57.066Z,1014.24
2016-11-24T04:43:08.955Z,1014.17
2016-11-24T04:44:22.412Z,1014.18
2016-11-24T04:45:37.390Z,1014.2
2016-11-24T04:46:48.236Z,1014.23
2016-11-24T04:48:01.306Z,1014.25
2016-11-24T04:49:14.495Z,1014.23
2016-11-24T04:50:28.760Z,1014.3
2016-11-24T04:51:43.267Z,1014.27
2016-11-24T04:52:56.171Z,1014.29
2016-11-24T04:54:11.684Z,1014.28
2016-11-24T04:55:24.401Z,1014.33
2016-11-24T04:56:39.861Z,1014.33
2016-11-24T04:57:54.271Z,1014.34
2016-11-24T04:59:10.528Z,1014.29
2016-11-24T05:00:24.053Z,1014.35
2016-11-24T05:01:39.540Z,1014.32
2016-11-24T05:02:54.114Z,1014.32
2016-11-24T05:04:10.277Z,1014.35
2016-11-24T05:05:26.960Z,1014.3
2016-11-24T05:06:42.199Z,1014.31
2016-11-24T05:07:58.610Z,1014.34
2016-11-24T05:09:13.294Z,1014.33
2016-11-24T05:10:28.050Z,1014.32
2016-11-24T05:11:42.892Z,1014.37
2016-11-24T05:12:56.416Z,1014.32
2016-11-24T05:14:12.409Z,1014.38
2016-11-24T05:15:27.471Z,1014.38
2016-11-24T05:16:43.394Z,1014.35
2016-11-24T05:17:59.925Z,1014.36
2016-11-24T05:19:16.200Z,1014.36
2016-11-24T05:20:31.365Z,1014.4
2016-11-24T05:21:45.697Z,1014.4
2016-11-24T05:23:02.147Z,1014.34
2016-11-24T05:24:15.535Z,1014.35
2016-11-24T05:25:31.575Z,1014.38
2016-11-24T05:26:46.804Z,1014.37
2016-11-24T05:28:03.355Z,1014.42
2016-11-24T05:29:15.035Z,1014.39
2016-11-24T05:30:30.090Z,1014.4
2016-11-24T05:31:44.769Z,1014.42
2016-11-24T05:33:00.058Z,1014.44
2016-11-24T05:34:15.705Z,1014.43
2016-11-24T05:35:29.095Z,1014.44
2016-11-24T05:36:43.664Z,1014.44
2016-11-24T05:37:57.265Z,1014.47
2016-11-24T05:39:12.757Z,1014.49
2016-11-24T05:40:28.405Z,1014.48
2016-11-24T05:41:44.571Z,1014.5
2016-11-24T05:43:00.986Z,1014.51
2016-11-24T05:44:17.200Z,1014.56
2016-11-24T05:45:33.650Z,1014.51
2016-11-24T05:46:48.595Z,1014.56
2016-11-24T05:48:03.286Z,1014.56
2016-11-24T05:49:18.207Z,1014.54
2016-11-24T05:50:33.466Z,1014.48
2016-11-24T05:51:48.123Z,1014.5
2016-11-24T05:53:04.876Z,1014.49
2016-11-24T05:54:18.337Z,1014.54
2016-11-24T05:55:31.387Z,1014.52
2016-11-24T05:56:46.484Z,1014.49
2016-11-24T05:58:02.608Z,1014.44
2016-11-24T05:59:17.214Z,1014.46
2016-11-24T06:00:31.033Z,1014.45
2016-11-24T06:01:46.191Z,1014.44
2016-11-24T06:03:02.326Z,1014.44
2016-11-24T06:04:15.414Z,1014.48
2016-11-24T06:05:31.981Z,1014.45
2016-11-24T06:06:43.986Z,1014.46
2016-11-24T06:08:00.672Z,1014.52
2016-11-24T06:09:13.734Z,1014.45
2016-11-24T06:10:30.599Z,1014.48
2016-11-24T06:11:42.358Z,1014.45
2016-11-24T06:12:57.805Z,1014.44
2016-11-24T06:14:12.452Z,1014.45
2016-11-24T06:15:24.374Z,1014.53
2016-11-24T06:16:40.797Z,1014.52
2016-11-24T06:17:55.611Z,1014.51
2016-11-24T06:19:09.925Z,1014.53
2016-11-24T06:20:24.942Z,1014.54
2016-11-24T06:21:39.560Z,1014.53
2016-11-24T06:22:53.087Z,1014.53
2016-11-24T06:24:06.781Z,1014.61
2016-11-24T06:25:21.377Z,1014.59
2016-11-24T06:26:37.519Z,1014.63
2016-11-24T06:27:52.519Z,1014.63
2016-11-24T06:29:08.797Z,1014.64
2016-11-24T06:30:23.648Z,1014.64
2016-11-24T06:31:38.325Z,1014.65
2016-11-24T06:32:52.883Z,1014.57
2016-11-24T06:34:07.561Z,1014.67
2016-11-24T06:35:21.159Z,1014.63
2016-11-24T06:36:35.898Z,1014.56
2016-11-24T06:37:52.107Z,1014.74
2016-11-24T06:39:06.777Z,1014.66
2016-11-24T06:40:19.913Z,1014.58
2016-11-24T06:41:34.759Z,1014.57
2016-11-24T06:42:49.664Z,1014.53
2016-11-24T06:44:04.733Z,1014.55
2016-11-24T06:45:19.567Z,1014.6
2016-11-24T06:46:34.265Z,1014.62
2016-11-24T06:47:48.597Z,1014.68
2016-11-24T06:49:02.966Z,1014.69
2016-11-24T06:50:17.727Z,1014.67
2016-11-24T06:51:31.371Z,1014.74
2016-11-24T06:52:48.003Z,1014.79
2016-11-24T06:54:04.444Z,1014.76
2016-11-24T06:55:18.963Z,1014.77
2016-11-24T06:56:35.089Z,1014.81
2016-11-24T06:57:48.748Z,1014.87
2016-11-24T06:59:04.696Z,1014.84
2016-11-24T07:00:20.502Z,1014.83
2016-11-24T07:01:36.829Z,1014.89
2016-11-24T07:02:49.896Z,1014.9
2016-11-24T07:04:06.426Z,1014.85
2016-11-24T07:05:19.273Z,1014.9
2016-11-24T07:06:34.769Z,1014.95
2016-11-24T07:07:48.249Z,1014.94
2016-11-24T07:09:02.913Z,1014.93
2016-11-24T07:10:18.692Z,1014.92
2016-11-24T07:11:35.117Z,1015.02
2016-11-24T07:12:51.684Z,1014.93
2016-11-24T07:14:06.097Z,1015.03
2016-11-24T07:15:22.168Z,1015.05
2016-11-24T07:16:36.858Z,1015.02
2016-11-24T07:17:52.740Z,1014.99
2016-11-24T07:19:06.201Z,1015.1
2016-11-24T07:20:19.244Z,1015.15
2016-11-24T07:21:34.002Z,1015.16
2016-11-24T07:22:49.470Z,1015.17
2016-11-24T07:24:04.169Z,1015.2
2016-11-24T07:25:17.606Z,1015.23
2016-11-24T07:26:31.110Z,1015.27
2016-11-24T07:27:47.548Z,1015.21
2016-11-24T07:29:02.625Z,1015.25
2016-11-24T07:30:17.682Z,1015.3
2016-11-24T07:31:34.213Z,1015.29
2016-11-24T07:32:50.584Z,1015.31
2016-11-24T07:34:05.833Z,1015.35
2016-11-24T07:35:20.127Z,1015.29
2016-11-24T07:36:34.792Z,1015.35
2016-11-24T07:37:51.419Z,1015.31
2016-11-24T07:39:05.604Z,1015.33
2016-11-24T07:40:19.524Z,1015.35
2016-11-24T07:41:34.354Z,1015.4
2016-11-24T07:42:50.651Z,1015.35
2016-11-24T07:44:05.803Z,1015.29
2016-11-24T07:45:19.384Z,1015.3
2016-11-24T07:46:35.678Z,1015.34
2016-11-24T07:47:49.629Z,1015.31
2016-11-24T07:49:04.040Z,1015.32
2016-11-24T07:50:19.767Z,1015.44
2016-11-24T07:51:35.041Z,1015.37
2016-11-24T07:52:50.673Z,1015.36
2016-11-24T07:54:04.146Z,1015.4
2016-11-24T07:55:16.796Z,1015.44
2016-11-24T07:56:32.011Z,1015.44
2016-11-24T07:57:46.944Z,1015.54
2016-11-24T07:59:00.707Z,1015.43
2016-11-24T08:00:16.772Z,1015.48
2016-11-24T08:01:31.517Z,1015.42
2016-11-24T08:02:45.146Z,1015.43
2016-11-24T08:03:58.281Z,1015.42
2016-11-24T08:05:13.377Z,1015.54
2016-11-24T08:06:25.659Z,1015.46
2016-11-24T08:07:39.914Z,1015.5
2016-11-24T08:08:54.848Z,1015.58
2016-11-24T08:10:07.667Z,1015.51
2016-11-24T08:11:22.670Z,1015.6
2016-11-24T08:12:36.287Z,1015.53
2016-11-24T08:13:52.839Z,1015.57
2016-11-24T08:15:06.338Z,1015.61
2016-11-24T08:16:21.447Z,1015.72
2016-11-24T08:17:36.687Z,1015.69
2016-11-24T08:18:52.598Z,1015.73
2016-11-24T08:20:06.095Z,1015.79
2016-11-24T08:21:19.512Z,1015.8
2016-11-24T08:22:35.647Z,1015.84
2016-11-24T08:23:50.071Z,1015.82
2016-11-24T08:25:02.920Z,1015.88
2016-11-24T08:26:18.537Z,1015.85
2016-11-24T08:27:33.683Z,1015.82
2016-11-24T08:28:49.827Z,1015.87
2016-11-24T08:30:05.876Z,1015.85
2016-11-24T08:31:20.708Z,1015.88
2016-11-24T08:32:35.825Z,1015.91
2016-11-24T08:33:50.325Z,1015.91
2016-11-24T08:35:06.364Z,1015.89
2016-11-24T08:36:19.099Z,1015.93
2016-11-24T08:37:33.963Z,1015.88
2016-11-24T08:38:49.040Z,1015.9
2016-11-24T08:40:05.289Z,1015.87
2016-11-24T08:41:20.524Z,1015.94
2016-11-24T08:42:34.021Z,1015.92
2016-11-24T08:43:48.687Z,1015.9
2016-11-24T08:45:03.748Z,1015.91
2016-11-24T08:46:18.303Z,1015.91
2016-11-24T08:47:32.789Z,1015.92
2016-11-24T08:48:44.701Z,1015.99
2016-11-24T08:50:01.124Z,1015.95
2016-11-24T08:51:13.877Z,1015.97
2016-11-24T08:52:30.165Z,1016.05
2016-11-24T08:53:43.389Z,1015.99
2016-11-24T08:54:58.867Z,1015.96
2016-11-24T08:56:12.513Z,1015.94
2016-11-24T08:57:25.469Z,1015.98
2016-11-24T08:58:42.249Z,1015.98
2016-11-24T08:59:55.648Z,1016.01
2016-11-24T09:01:10.839Z,1016.02
2016-11-24T09:02:23.652Z,1016.01
2016-11-24T09:03:38.238Z,1015.99
2016-11-24T09:04:52.207Z,1016.03
2016-11-24T09:06:07.342Z,1016.12
2016-11-24T09:07:21.182Z,1016.07
2016-11-24T09:08:36.378Z,1016.16
2016-11-24T09:09:51.596Z,1016.13
2016-11-24T09:11:06.597Z,1016.13
2016-11-24T09:12:19.820Z,1016.14
2016-11-24T09:13:34.699Z,1016.2
2016-11-24T09:14:49.892Z,1016.12
2016-11-24T09:16:03.348Z,1016.18
2016-11-24T09:17:18.727Z,1016.18
2016-11-24T09:18:32.036Z,1016.25
2016-11-24T09:19:48.405Z,1016.19
2016-11-24T09:21:04.167Z,1016.27
2016-11-24T09:22:20.226Z,1016.2
2016-11-24T09:23:35.212Z,1016.26
2016-11-24T09:24:49.885Z,1016.23
2016-11-24T09:26:04.732Z,1016.26
2016-11-24T09:27:18.939Z,1016.33
2016-11-24T09:28:33.847Z,1016.3
2016-11-24T09:29:48.364Z,1016.5
2016-11-24T09:31:04.798Z,1016.27
2016-11-24T09:32:16.806Z,1016.3
2016-11-24T09:33:32.441Z,1016.31
2016-11-24T09:34:47.318Z,1016.32
2016-11-24T09:36:00.935Z,1016.32
2016-11-24T09:37:16.089Z,1016.4
2016-11-24T09:38:32.558Z,1016.35
2016-11-24T09:39:47.688Z,1016.34
2016-11-24T09:41:01.295Z,1016.44
2016-11-24T09:42:14.081Z,1016.26
2016-11-24T09:43:29.074Z,1016.33
2016-11-24T09:44:42.637Z,1016.31
2016-11-24T09:45:57.154Z,1016.42
2016-11-24T09:47:13.643Z,1016.34
2016-11-24T09:48:28.701Z,1016.35
2016-11-24T09:49:45.243Z,1016.32
2016-11-24T09:51:01.614Z,1016.32
2016-11-24T09:52:15.688Z,1016.35
2016-11-24T09:53:31.830Z,1016.37
2016-11-24T09:54:47.031Z,1016.41
2016-11-24T09:56:01.555Z,1016.39
2016-11-24T09:57:15.203Z,1016.31
2016-11-24T09:58:30.128Z,1016.36
2016-11-24T09:59:45.181Z,1016.37
2016-11-24T10:00:58.807Z,1016.41
2016-11-24T10:02:13.771Z,1016.36
2016-11-24T10:03:29.780Z,1016.4
2016-11-24T10:04:45.991Z,1016.5
2016-11-24T10:05:58.721Z,1016.48
2016-11-24T10:07:13.833Z,1016.55
2016-11-24T10:08:29.617Z,1016.54
2016-11-24T10:09:41.616Z,1016.56
2016-11-24T10:10:57.712Z,1016.49
2016-11-24T10:12:13.932Z,1016.49
2016-11-24T10:13:31.019Z,1016.45
2016-11-24T10:14:44.076Z,1016.5
2016-11-24T10:16:00.761Z,1016.52
2016-11-24T10:17:14.241Z,1016.42
2016-11-24T10:18:27.638Z,1016.43
2016-11-24T10:19:41.257Z,1016.37
2016-11-24T10:20:57.510Z,1016.42
2016-11-24T10:22:12.190Z,1016.41
2016-11-24T10:23:26.661Z,1016.44
2016-11-24T10:24:41.674Z,1016.36
2016-11-24T10:25:56.526Z,1016.42
2016-11-24T10:27:07.249Z,1016.32
2016-11-24T10:28:23.706Z,1016.35
2016-11-24T10:29:38.975Z,1016.25
2016-11-24T10:30:55.746Z,1016.31
2016-11-24T10:32:09.127Z,1016.24
2016-11-24T10:33:23.744Z,1016.25
2016-11-24T10:34:36.772Z,1016.27
2016-11-24T10:35:51.486Z,1016.25
2016-11-24T10:37:07.830Z,1016.32
2016-11-24T10:38:22.969Z,1016.32
2016-11-24T10:39:37.517Z,1016.16
2016-11-24T10:40:53.765Z,1016.15
2016-11-24T10:42:08.839Z,1016.17
2016-11-24T10:43:20.609Z,1016.15
2016-11-24T10:44:37.483Z,1016.13
2016-11-24T10:45:50.615Z,1016.19
2016-11-24T10:47:06.774Z,1016.14
2016-11-24T10:48:21.453Z,1016.15
2016-11-24T10:49:35.973Z,1016.13
2016-11-24T10:50:50.690Z,1016.11
2016-11-24T10:52:04.951Z,1016.05
2016-11-24T10:53:21.636Z,1016.03
2016-11-24T10:54:36.712Z,1016.06
2016-11-24T10:55:51.487Z,1015.98
2016-11-24T10:57:04.930Z,1016.01
2016-11-24T10:58:18.117Z,1016.01
2016-11-24T10:59:32.794Z,1015.99
2016-11-24T11:00:45.527Z,1016.01
2016-11-24T11:02:00.636Z,1015.97
2016-11-24T11:03:16.940Z,1016
2016-11-24T11:04:31.947Z,1015.93
2016-11-24T11:05:44.918Z,1015.92
2016-11-24T11:06:58.361Z,1015.94
2016-11-24T11:08:13.534Z,1015.97
2016-11-24T11:09:30.184Z,1015.96
2016-11-24T11:10:43.803Z,1015.98
2016-11-24T11:12:00.157Z,1015.94
2016-11-24T11:13:16.467Z,1016
2016-11-24T11:14:33.383Z,1015.97
2016-11-24T11:15:47.876Z,1015.92
2016-11-24T11:17:02.797Z,1015.95
2016-11-24T11:18:16.182Z,1015.95
2016-11-24T11:19:31.837Z,1015.91
2016-11-24T11:20:47.979Z,1015.93
2016-11-24T11:22:02.934Z,1015.98
2016-11-24T11:23:18.810Z,1015.96
2016-11-24T11:24:30.967Z,1015.97
2016-11-24T11:25:45.332Z,1015.93
2016-11-24T11:27:00.874Z,1015.95
2016-11-24T11:28:14.199Z,1015.96
2016-11-24T11:29:28.892Z,1016.01
2016-11-24T11:30:44.353Z,1015.97
2016-11-24T11:31:57.562Z,1015.94
2016-11-24T11:33:14.262Z,1015.97
2016-11-24T11:34:30.530Z,1015.96
2016-11-24T11:35:45.072Z,1016.02
2016-11-24T11:36:59.957Z,1016.02
2016-11-24T11:38:16.324Z,1015.96
2016-11-24T11:39:33.017Z,1015.95
2016-11-24T11:40:48.334Z,1016.01
2016-11-24T11:42:03.423Z,1015.99
2016-11-24T11:43:18.492Z,1015.97
2016-11-24T11:44:34.371Z,1016
2016-11-24T11:45:50.450Z,1016.01
2016-11-24T11:47:06.553Z,1015.97
2016-11-24T11:48:21.282Z,1015.97
2016-11-24T11:49:36.185Z,1016
2016-11-24T11:50:51.256Z,1015.86
2016-11-24T11:52:04.875Z,1015.97
2016-11-24T11:53:19.408Z,1015.96
2016-11-24T11:54:32.610Z,1015.97
2016-11-24T11:55:47.464Z,1016
2016-11-24T11:57:02.934Z,1016.06
2016-11-24T11:58:17.719Z,1016.02
2016-11-24T11:59:30.938Z,1015.99
2016-11-24T12:00:45.797Z,1016
2016-11-24T12:02:00.910Z,1016.03
2016-11-24T12:03:16.797Z,1016.05
2016-11-24T12:04:30.467Z,1016.02
2016-11-24T12:05:46.548Z,1015.97
2016-11-24T12:07:01.672Z,1016.01
2016-11-24T12:08:13.681Z,1016.05
2016-11-24T12:09:30.148Z,1015.94
2016-11-24T12:10:46.720Z,1015.98
2016-11-24T12:12:02.499Z,1016.01
2016-11-24T12:13:16.858Z,1016
2016-11-24T12:14:30.396Z,1015.98
2016-11-24T12:15:46.082Z,1015.93
2016-11-24T12:17:00.837Z,1016.03
2016-11-24T12:18:13.152Z,1015.95
2016-11-24T12:19:30.096Z,1016
2016-11-24T12:20:43.612Z,1015.93
2016-11-24T12:21:58.857Z,1015.91
2016-11-24T12:23:12.735Z,1015.91
2016-11-24T12:24:27.332Z,1015.9
2016-11-24T12:25:43.649Z,1015.86
2016-11-24T12:26:58.189Z,1015.89
2016-11-24T12:28:12.602Z,1015.91
2016-11-24T12:29:27.790Z,1015.86
2016-11-24T12:30:42.366Z,1015.73
2016-11-24T12:31:57.136Z,1015.71
2016-11-24T12:33:12.411Z,1015.69
2016-11-24T12:34:29.104Z,1015.71
2016-11-24T12:35:43.297Z,1015.64
2016-11-24T12:36:56.545Z,1015.62
2016-11-24T12:38:09.757Z,1015.53
2016-11-24T12:39:24.746Z,1015.49
2016-11-24T12:40:41.298Z,1015.45
2016-11-24T12:41:55.005Z,1015.39
2016-11-24T12:43:10.173Z,1015.3
2016-11-24T12:44:26.593Z,1015.34
2016-11-24T12:45:42.714Z,1015.37
2016-11-24T12:46:56.336Z,1015.32
2016-11-24T12:48:11.769Z,1015.32
2016-11-24T12:49:26.803Z,1015.31
2016-11-24T12:50:43.351Z,1015.41
2016-11-24T12:51:56.572Z,1015.25
2016-11-24T12:53:11.261Z,1015.33
2016-11-24T12:54:27.537Z,1015.37
2016-11-24T12:55:42.615Z,1015.29
2016-11-24T12:56:59.586Z,1015.35
2016-11-24T12:58:14.685Z,1015.32
2016-11-24T12:59:30.853Z,1015.34
2016-11-24T13:00:46.320Z,1015.37
2016-11-24T13:02:02.445Z,1015.34
2016-11-24T13:03:15.969Z,1015.3
2016-11-24T13:04:31.301Z,1015.36
2016-11-24T13:05:47.271Z,1015.42
2016-11-24T13:07:00.855Z,1015.37
2016-11-24T13:08:12.875Z,1015.39
2016-11-24T13:09:28.073Z,1015.32
2016-11-24T13:10:43.964Z,1015.36
2016-11-24T13:11:58.836Z,1015.3
2016-11-24T13:13:15.936Z,1015.39
2016-11-24T13:14:30.279Z,1015.35
2016-11-24T13:15:43.745Z,1015.33
2016-11-24T13:16:57.032Z,1015.37
2016-11-24T13:18:11.291Z,1015.36
2016-11-24T13:19:26.146Z,1015.31
2016-11-24T13:20:39.293Z,1015.36
2016-11-24T13:21:54.991Z,1015.31
2016-11-24T13:23:11.257Z,1015.28
2016-11-24T13:24:28.195Z,1015.31
2016-11-24T13:25:39.831Z,1015.24
2016-11-24T13:26:56.215Z,1015.26
2016-11-24T13:28:12.661Z,1015.21
2016-11-24T13:29:26.919Z,1015.21
2016-11-24T13:30:44.071Z,1015.21
2016-11-24T13:31:59.038Z,1015.19
2016-11-24T13:33:12.586Z,1015.18
2016-11-24T13:34:27.565Z,1015.18
2016-11-24T13:35:39.235Z,1015.11
2016-11-24T13:36:54.726Z,1015.15
2016-11-24T13:38:09.995Z,1015.15
2016-11-24T13:39:26.459Z,1015.13
2016-11-24T13:40:41.394Z,1015.14
2016-11-24T13:41:56.690Z,1015.13
2016-11-24T13:43:09.982Z,1015.06
2016-11-24T13:44:26.228Z,1015.05
2016-11-24T13:45:40.258Z,1015.01
2016-11-24T13:46:56.425Z,1015.07
2016-11-24T13:48:12.959Z,1015.02
2016-11-24T13:49:27.751Z,1015
2016-11-24T13:50:41.346Z,1015.05
2016-11-24T13:51:56.207Z,1015.06
2016-11-24T13:53:11.295Z,1015
2016-11-24T13:54:27.742Z,1014.98
2016-11-24T13:55:41.798Z,1015.09
2016-11-24T13:56:58.539Z,1015.08
2016-11-24T13:58:14.260Z,1015.07
2016-11-24T13:59:30.433Z,1015.09
2016-11-24T14:00:45.141Z,1015.08
2016-11-24T14:02:00.323Z,1015.04
2016-11-24T14:03:15.513Z,1015.09
2016-11-24T14:04:31.030Z,1015.04
2016-11-24T14:05:44.686Z,1015.02
2016-11-24T14:07:00.560Z,1015.02
2016-11-24T14:08:13.522Z,1015.09
2016-11-24T14:09:29.879Z,1015.1
2016-11-24T14:10:45.188Z,1015.12
2016-11-24T14:11:59.854Z,1015.15
2016-11-24T14:13:12.048Z,1015.13
2016-11-24T14:14:26.404Z,1015.14
2016-11-24T14:15:42.551Z,1015.09
2016-11-24T14:16:57.987Z,1015.04
2016-11-24T14:18:14.219Z,1015.05
2016-11-24T14:19:31.308Z,1015.07
2016-11-24T14:20:47.628Z,1015.07
2016-11-24T14:22:02.796Z,1015.08
2016-11-24T14:23:17.939Z,1015.11
2016-11-24T14:24:31.508Z,1015.07
2016-11-24T14:25:47.233Z,1015.08
2016-11-24T14:27:03.285Z,1015.16
2016-11-24T14:28:18.114Z,1015.13
2016-11-24T14:29:32.954Z,1015.22
2016-11-24T14:30:45.670Z,1015.21
2016-11-24T14:31:59.757Z,1015.26
2016-11-24T14:33:16.095Z,1015.23
2016-11-24T14:34:30.763Z,1015.22
2016-11-24T14:35:45.535Z,1015.26
2016-11-24T14:36:59.946Z,1015.23
2016-11-24T14:38:13.793Z,1015.29
2016-11-24T14:39:28.466Z,1015.26
2016-11-24T14:40:40.436Z,1015.26
2016-11-24T14:41:57.506Z,1015.28
2016-11-24T14:43:13.534Z,1015.29
2016-11-24T14:44:30.249Z,1015.28
2016-11-24T14:45:44.228Z,1015.28
2016-11-24T14:46:59.057Z,1015.3
2016-11-24T14:48:14.032Z,1015.29
2016-11-24T14:49:28.248Z,1015.36
2016-11-24T14:50:44.543Z,1015.33
2016-11-24T14:51:58.963Z,1015.3
2016-11-24T14:53:14.862Z,1015.3
2016-11-24T14:54:29.687Z,1015.32
2016-11-24T14:55:44.600Z,1015.36
2016-11-24T14:57:00.658Z,1015.38
2016-11-24T14:58:16.350Z,1015.37
2016-11-24T14:59:28.607Z,1015.37
2016-11-24T15:00:41.758Z,1015.38
2016-11-24T15:01:56.463Z,1015.38
2016-11-24T15:03:12.580Z,1015.42
2016-11-24T15:04:29.003Z,1015.4
2016-11-24T15:05:42.611Z,1015.44
2016-11-24T15:06:59.074Z,1015.43
2016-11-24T15:08:14.249Z,1015.46